Captain Ed — WDF6338 — position and weather

sailwx.info

Track history (hours):
 
Tides and Currents Weather Stations Pressure Air Temp Water Temp Dewpoint Dewpoint Depression Visibility Wind Speed Wind Dir Waves Ship Positions

Captain Ed

Owner: Norfolk Dredging Company, Chesapeake, VA. More information available from US FCC via Universal Licensing System and Coast Guard Vessel Documentation Center.

Last reported at 2016-Dec-11 11:33 UTC. Time now 2016-Dec-11 11:52 UTC.
Position N 39°35' W 075°33'.

Length 22 m; draft 3 m.

Type: Tug. MMSI: 367473210.

Date/timePositionNaut miles runAvg speedWind from/ knotsBaromVisibWave heightAir tempDewpointWater temp
2016-Dec-11 11:33N 39°35' W 075°33'0 0.0
2016-Dec-11 10:33N 39°35' W 075°33'0 0.0
2016-Dec-11 09:33N 39°35' W 075°33'0 0.0
2016-Dec-11 08:33N 39°35' W 075°33'0 0.1
2016-Dec-11 07:34N 39°35' W 075°33'3 2.9
2016-Dec-11 06:33N 39°38' W 075°34'5 4.7
2016-Dec-11 05:33N 39°42' W 075°31'2 2.2
2016-Dec-11 04:33N 39°44' W 075°29'4 4.3
2016-Dec-11 03:33N 39°47' W 075°27'3 3.1
2016-Dec-11 02:33N 39°49' W 075°23'2 1.8
2016-Dec-11 01:33N 39°50' W 075°21'1 1.4
2016-Dec-11 00:33N 39°51' W 075°20'2 1.8
2016-Dec-10 23:33N 39°51' W 075°18'  
Track history (hours):
 
Tides and Currents Weather Stations Pressure Air Temp Water Temp Dewpoint Dewpoint Depression Visibility Wind Speed Wind Dir Waves Ship Positions

Captain Ed

Owner: Norfolk Dredging Company, Chesapeake, VA. More information available from US FCC via Universal Licensing System and Coast Guard Vessel Documentation Center.

Last reported at 2016-Dec-11 11:33 UTC. Time now 2016-Dec-11 11:52 UTC.
Position N 39°35' W 075°33'.

Length 22 m; draft 3 m.

Type: Tug. MMSI: 367473210.

Date/timePositionNaut miles runAvg speedWind from/ knotsBaromVisibWave heightAir tempDewpointWater temp
2016-Dec-11 11:33N 39°35' W 075°33'0 0.0
2016-Dec-11 10:33N 39°35' W 075°33'0 0.0
2016-Dec-11 09:33N 39°35' W 075°33'0 0.0
2016-Dec-11 08:33N 39°35' W 075°33'0 0.1
2016-Dec-11 07:34N 39°35' W 075°33'3 2.9
2016-Dec-11 06:33N 39°38' W 075°34'5 4.7
2016-Dec-11 05:33N 39°42' W 075°31'2 2.2
2016-Dec-11 04:33N 39°44' W 075°29'4 4.3
2016-Dec-11 03:33N 39°47' W 075°27'3 3.1
2016-Dec-11 02:33N 39°49' W 075°23'2 1.8
2016-Dec-11 01:33N 39°50' W 075°21'1 1.4
2016-Dec-11 00:33N 39°51' W 075°20'2 1.8
2016-Dec-10 23:33N 39°51' W 075°18'  

Dump ship's entire track history